UPS1121 KPHL-KEWR
Flight info
| Callsign | UPS1121 |
|---|---|
| Flight time | 0h 18m |
| Altitude | 7000 |
| Route | RUUTH V123 RBV |
| Aircraft | MD11/H-SDE1E2E3FGHIJ2J3J4J5M1RWXY/LB1D1 |
Departure
| Time | 2026-04-24 19:01 |
|---|---|
| Airport | Philadelphia International Airport (KPHL) |
Arrival
| Time | 2026-04-24 19:20 |
|---|---|
| Airport | Newark Liberty International Airport (KEWR) |
| Time | Latitude | Longitude | Altitude | Speed | Heading |
|---|---|---|---|---|---|
| 2026-04-24 18:54 | 39.86171 | -75.25229 | 33 ft | 0 kts | 327° |
| 2026-04-24 18:56 | 39.86171 | -75.25230 | 33 ft | 0 kts | 327° |
| 2026-04-24 18:56 | 39.86178 | -75.25236 | 33 ft | 2 kts | 327° |
| 2026-04-24 18:57 | 39.86198 | -75.25254 | 33 ft | 4 kts | 323° |
| 2026-04-24 18:57 | 39.86217 | -75.25290 | 32 ft | 5 kts | 291° |
| 2026-04-24 18:57 | 39.86211 | -75.25323 | 33 ft | 3 kts | 240° |
| 2026-04-24 18:57 | 39.86196 | -75.25359 | 33 ft | 5 kts | 241° |
| 2026-04-24 18:58 | 39.86180 | -75.25402 | 33 ft | 6 kts | 246° |
| 2026-04-24 18:58 | 39.86170 | -75.25463 | 33 ft | 10 kts | 269° |
| 2026-04-24 18:58 | 39.86244 | -75.25542 | 33 ft | 20 kts | 343° |
| 2026-04-24 18:58 | 39.86387 | -75.25592 | 33 ft | 21 kts | 345° |
| 2026-04-24 18:59 | 39.86531 | -75.25641 | 33 ft | 21 kts | 346° |
| 2026-04-24 18:59 | 39.86652 | -75.25614 | 33 ft | 17 kts | 54° |
| 2026-04-24 18:59 | 39.86700 | -75.25497 | 33 ft | 12 kts | 35° |
| 2026-04-24 18:59 | 39.86775 | -75.25502 | 33 ft | 11 kts | 341° |
| 2026-04-24 19:00 | 39.86846 | -75.25517 | 33 ft | 9 kts | 14° |
| 2026-04-24 19:00 | 39.86884 | -75.25465 | 33 ft | 8 kts | 62° |
| 2026-04-24 19:00 | 39.86902 | -75.25396 | 33 ft | 8 kts | 72° |
| 2026-04-24 19:00 | 39.86919 | -75.25325 | 33 ft | 8 kts | 74° |
| 2026-04-24 19:01 | 39.86955 | -75.25142 | 33 ft | 65 kts | 75° |
| 2026-04-24 19:01 | 39.87168 | -75.24077 | 33 ft | 172 kts | 75° |
| 2026-04-24 19:01 | 39.87522 | -75.22335 | 353 ft | 210 kts | 75° |
| 2026-04-24 19:01 | 39.87937 | -75.20550 | 1375 ft | 203 kts | 71° |
| 2026-04-24 19:02 | 39.88269 | -75.18775 | 2650 ft | 202 kts | 78° |
| 2026-04-24 19:02 | 39.88519 | -75.16963 | 3680 ft | 209 kts | 77° |
| 2026-04-24 19:02 | 39.88809 | -75.15045 | 4387 ft | 219 kts | 75° |
| 2026-04-24 19:02 | 39.89002 | -75.13087 | 5119 ft | 227 kts | 90° |
| 2026-04-24 19:03 | 39.88577 | -75.11066 | 5784 ft | 241 kts | 108° |
| 2026-04-24 19:03 | 39.87866 | -75.08908 | 6171 ft | 277 kts | 110° |
| 2026-04-24 19:03 | 39.87086 | -75.06499 | 6547 ft | 295 kts | 109° |
| 2026-04-24 19:03 | 39.86326 | -75.03997 | 6899 ft | 301 kts | 107° |
| 2026-04-24 19:04 | 39.85823 | -75.01381 | 6960 ft | 295 kts | 88° |
| 2026-04-24 19:04 | 39.86154 | -74.98834 | 6994 ft | 281 kts | 59° |
| 2026-04-24 19:04 | 39.87210 | -74.96747 | 7010 ft | 275 kts | 44° |
| 2026-04-24 19:04 | 39.88478 | -74.94891 | 7004 ft | 273 kts | 41° |
| 2026-04-24 19:05 | 39.89772 | -74.93089 | 6998 ft | 273 kts | 40° |
| 2026-04-24 19:05 | 39.91053 | -74.91309 | 7001 ft | 273 kts | 40° |
| 2026-04-24 19:05 | 39.92359 | -74.89510 | 7008 ft | 273 kts | 40° |
| 2026-04-24 19:05 | 39.93710 | -74.87706 | 7015 ft | 292 kts | 39° |
| 2026-04-24 19:06 | 39.95173 | -74.85684 | 6993 ft | 312 kts | 42° |
| 2026-04-24 19:06 | 39.96631 | -74.83540 | 6988 ft | 316 kts | 43° |
| 2026-04-24 19:06 | 39.98109 | -74.81379 | 6993 ft | 316 kts | 43° |
| 2026-04-24 19:06 | 39.99590 | -74.79240 | 7010 ft | 321 kts | 42° |
| 2026-04-24 19:07 | 40.01051 | -74.77139 | 7010 ft | 323 kts | 42° |
| 2026-04-24 19:07 | 40.02531 | -74.75014 | 6995 ft | 318 kts | 42° |
| 2026-04-24 19:07 | 40.04018 | -74.72882 | 6997 ft | 312 kts | 42° |
| 2026-04-24 19:07 | 40.05509 | -74.70742 | 7001 ft | 314 kts | 42° |
| 2026-04-24 19:08 | 40.06993 | -74.68609 | 7021 ft | 318 kts | 42° |
| 2026-04-24 19:08 | 40.08471 | -74.66484 | 6995 ft | 322 kts | 42° |
| 2026-04-24 19:08 | 40.09949 | -74.64354 | 6998 ft | 320 kts | 42° |
| 2026-04-24 19:08 | 40.11428 | -74.62215 | 6984 ft | 314 kts | 42° |
| 2026-04-24 19:09 | 40.12895 | -74.60096 | 6989 ft | 313 kts | 42° |
| 2026-04-24 19:09 | 40.14402 | -74.57925 | 6990 ft | 328 kts | 42° |
| 2026-04-24 19:09 | 40.15938 | -74.55707 | 6991 ft | 332 kts | 42° |
| 2026-04-24 19:09 | 40.17481 | -74.53473 | 6991 ft | 331 kts | 42° |
| 2026-04-24 19:10 | 40.19021 | -74.51241 | 6989 ft | 329 kts | 41° |
| 2026-04-24 19:10 | 40.20748 | -74.49330 | 7004 ft | 322 kts | 28° |
| 2026-04-24 19:10 | 40.22652 | -74.47820 | 6829 ft | 314 kts | 24° |
| 2026-04-24 19:10 | 40.24497 | -74.46514 | 6636 ft | 290 kts | 22° |
| 2026-04-24 19:11 | 40.26223 | -74.45327 | 6452 ft | 271 kts | 22° |
| 2026-04-24 19:11 | 40.27823 | -74.44231 | 6270 ft | 256 kts | 21° |
| 2026-04-24 19:11 | 40.29391 | -74.43158 | 6091 ft | 255 kts | 21° |
| 2026-04-24 19:11 | 40.30955 | -74.42089 | 5906 ft | 253 kts | 22° |
| 2026-04-24 19:12 | 40.32513 | -74.41018 | 5796 ft | 254 kts | 22° |
| 2026-04-24 19:12 | 40.34080 | -74.39936 | 5706 ft | 254 kts | 22° |
| 2026-04-24 19:12 | 40.35642 | -74.38853 | 5620 ft | 254 kts | 22° |
| 2026-04-24 19:12 | 40.37211 | -74.37764 | 5443 ft | 255 kts | 23° |
| 2026-04-24 19:13 | 40.38249 | -74.37041 | 5258 ft | 255 kts | 24° |
| 2026-04-24 19:13 | 40.40307 | -74.35603 | 4878 ft | 249 kts | 24° |
| 2026-04-24 19:13 | 40.41789 | -74.34463 | 4548 ft | 244 kts | 28° |
| 2026-04-24 19:13 | 40.43203 | -74.33323 | 4234 ft | 231 kts | 28° |
| 2026-04-24 19:14 | 40.44591 | -74.32263 | 3983 ft | 226 kts | 27° |
| 2026-04-24 19:14 | 40.45906 | -74.31314 | 3842 ft | 214 kts | 24° |
| 2026-04-24 19:14 | 40.47200 | -74.30467 | 3395 ft | 205 kts | 24° |
| 2026-04-24 19:14 | 40.48479 | -74.29660 | 2711 ft | 199 kts | 24° |
| 2026-04-24 19:15 | 40.49759 | -74.28853 | 2354 ft | 204 kts | 24° |
| 2026-04-24 19:15 | 40.51038 | -74.28045 | 1969 ft | 204 kts | 25° |
| 2026-04-24 19:15 | 40.52291 | -74.27252 | 1664 ft | 200 kts | 25° |
| 2026-04-24 19:15 | 40.53550 | -74.26455 | 1630 ft | 202 kts | 25° |
| 2026-04-24 19:16 | 40.55927 | -74.24945 | 1548 ft | 167 kts | 25° |
| 2026-04-24 19:16 | 40.56956 | -74.24293 | 1640 ft | 164 kts | 25° |
| 2026-04-24 19:16 | 40.57981 | -74.23643 | 1644 ft | 163 kts | 25° |
| 2026-04-24 19:17 | 40.59000 | -74.22996 | 1623 ft | 163 kts | 25° |
| 2026-04-24 19:17 | 40.60002 | -74.22360 | 1620 ft | 163 kts | 25° |
| 2026-04-24 19:17 | 40.61023 | -74.21711 | 1592 ft | 165 kts | 25° |
| 2026-04-24 19:17 | 40.62045 | -74.21061 | 1330 ft | 162 kts | 25° |
| 2026-04-24 19:18 | 40.63061 | -74.20415 | 1117 ft | 163 kts | 26° |
| 2026-04-24 19:18 | 40.64077 | -74.19769 | 898 ft | 163 kts | 26° |
| 2026-04-24 19:18 | 40.65104 | -74.19116 | 681 ft | 165 kts | 26° |
| 2026-04-24 19:18 | 40.66151 | -74.18487 | 471 ft | 166 kts | 28° |
| 2026-04-24 19:19 | 40.67181 | -74.17818 | 220 ft | 165 kts | 30° |
| 2026-04-24 19:19 | 40.68194 | -74.17151 | 32 ft | 162 kts | 30° |
| 2026-04-24 19:19 | 40.69096 | -74.16577 | 31 ft | 120 kts | 25° |
| 2026-04-24 19:19 | 40.69699 | -74.16195 | 28 ft | 76 kts | 25° |
| 2026-04-24 19:20 | 40.70026 | -74.15991 | 30 ft | 32 kts | 26° |
| 2026-04-24 19:20 | 40.70206 | -74.15886 | 31 ft | 19 kts | 6° |
| 2026-04-24 19:20 | 40.70250 | -74.15924 | 28 ft | 4 kts | 289° |
| 2026-04-24 19:20 | 40.70253 | -74.15973 | 30 ft | 17 kts | 273° |
| 2026-04-24 19:21 | 40.70270 | -74.16259 | 29 ft | 35 kts | 275° |
| 2026-04-24 19:21 | 40.70290 | -74.16571 | 29 ft | 33 kts | 275° |
| 2026-04-24 19:21 | 40.70309 | -74.16864 | 29 ft | 32 kts | 275° |
| 2026-04-24 19:21 | 40.70330 | -74.17148 | 30 ft | 30 kts | 276° |
| 2026-04-24 19:22 | 40.70342 | -74.17330 | 29 ft | 30 kts | 275° |
| 2026-04-24 19:22 | 40.70375 | -74.17624 | 30 ft | 13 kts | 324° |
| 2026-04-24 19:22 | 40.70439 | -74.17653 | 29 ft | 0 kts | 347° |
| 2026-04-24 19:22 | 40.70440 | -74.17654 | 29 ft | 1 kts | 347° |
| 2026-04-24 19:23 | 40.70441 | -74.17654 | 29 ft | 0 kts | 347° |